ノヴォシビルスク の空港の天気 - METARとTAF

トルマチェヴォ空港(ノヴォシビルスク) ( UNNT / OVB ) - ロシア ノヴォシビルスク
飛行場実況気象(Metar)
観測時間06/18 01:30 OMST (06/17 19:30 UTC)
風向・風速南 4m/s
視程10km以上
天気現象
なし
気温12℃
湿度77%
気圧1008hPa
METARUNNT 171930Z 17004MPS CAVOK 12/08 Q1008 R25/190065 R16/190065 NOSIG RMK QFE746/0995
過去の天気等 Google飛行場航空写真 Wunderground天気予報

過去48時間のMETAR

飛行場予報(TAF)
発表時間: 6/17 23:00 OMST (6/17 17:00 UTC)
予報対象時間: 18日0時 OMST ~ 19日0時 OMST
風向・風速南南東 3m/s 瞬間風速 8m/s
視程10km以上
なし
18日0時 OMST ~ 18日6時 OMST に一時的に
視程1500m
天気現象もや 煙
18日6時 OMST から
風向・風速南南東 7m/s 瞬間風速 15m/s
視程10km以上
全天の8割程度の積乱雲 雲底高度 1220m
18日11時 OMST ~ 18日24時 OMST に一時的に
風向・風速南西 9m/s 瞬間風速 18m/s
視程3100m
天気現象弱い雷雨
全天の8割程度の積乱雲 雲底高度 340m
TAF UNNT 171700Z 1718/1818 16003G08MPS CAVOK
TEMPO 1718/1724 1500 BR FU
FM180000 16007G15MPS 9999 BKN040CB
TEMPO 1805/1818 23009G18MPS 3100 -TSRA BKN011CB